Terminal Aerodrome Forecast
Issued by NWS Charleston, WV

Current Version | Previous Version | Text Only | Print | Product List | Glossary Off
Versions: 1 2 3 4 5 6 7 8 9 10 11 12 13 14 15 16 17 18 19 20 21 22 23 24 25 26

360
FTUS41 KRLX 160306 AAA
TAFCRW
TAF AMD
KCRW 160306Z 1603/1624 23006KT 6SM -SHRA OVC050
     FM160500 23008KT P6SM -SHRA OVC020
     FM160900 24012G20KT 2SM +RA BR BKN007 OVC015
     FM161100 28011KT 3SM +RA SCT007 OVC012
     FM162000 31009KT P6SM BKN008
     FM162300 33007KT P6SM BKN020=

USA.gov is the U.S. government's official web portal to all federal, state and local government web resources and services.